Time,TemperatureF,DewpointF,PressureIn,WindDirection,WindDirectionDegrees,WindSpeedMPH,WindSpeedGustMPH,Humidity,HourlyPrecipIn,Conditions,Clouds,dailyrainin,SoftwareType,DateUTC
2013-10-03 00:00:00,66.2,65.3,30.11,NE,48,0.0,0.0,97,0.00,CLR,,0.00,WeatherDisplay:10.37,2013-10-03 04:00:00,
2013-10-03 00:15:00,66.0,65.1,30.11,NE,48,0.0,0.0,97,0.00,CLR,,0.00,WeatherDisplay:10.37,2013-10-03 04:15:00,
2013-10-03 00:30:00,65.8,64.9,30.11,NE,48,0.0,0.0,97,0.00,CLR,,0.00,WeatherDisplay:10.37,2013-10-03 04:30:00,
2013-10-03 00:45:00,65.6,64.8,30.10,NE,48,0.0,0.0,97,0.00,CLR,,0.00,WeatherDisplay:10.37,2013-10-03 04:45:00,
2013-10-03 01:00:00,65.5,64.6,30.10,NE,48,0.0,0.0,97,0.00,CLR,,0.00,WeatherDisplay:10.37,2013-10-03 05:00:00,
2013-10-03 01:15:00,65.4,64.8,30.09,NE,48,0.0,0.0,98,0.00,CLR,,0.00,WeatherDisplay:10.37,2013-10-03 05:15:00,
2013-10-03 01:30:00,65.5,64.9,30.10,NE,48,0.0,0.0,98,0.00,CLR,,0.00,WeatherDisplay:10.37,2013-10-03 05:30:00,
2013-10-03 01:45:00,65.5,64.9,30.09,NE,48,0.0,0.0,98,0.00,CLR,,0.00,WeatherDisplay:10.37,2013-10-03 05:45:00,
2013-10-03 02:00:00,65.5,64.9,30.09,NE,48,0.0,0.0,98,0.00,CLR,,0.00,WeatherDisplay:10.37,2013-10-03 06:00:00,
2013-10-03 02:15:00,65.6,65.0,30.09,NE,48,0.0,0.0,98,0.00,CLR,,0.00,WeatherDisplay:10.37,2013-10-03 06:15:00,
2013-10-03 02:30:00,65.6,65.0,30.08,NE,48,0.0,0.0,98,0.00,CLR,,0.00,WeatherDisplay:10.37,2013-10-03 06:30:00,
2013-10-03 02:45:00,65.6,65.0,30.08,NE,48,0.0,0.0,98,0.00,CLR,,0.00,WeatherDisplay:10.37,2013-10-03 06:45:00,
2013-10-03 03:00:00,65.6,65.0,30.08,NE,48,0.0,0.0,98,0.00,CLR,,0.00,WeatherDisplay:10.37,2013-10-03 07:00:00,
2013-10-03 03:15:00,65.5,64.9,30.07,NE,48,0.0,0.0,98,0.00,CLR,,0.00,WeatherDisplay:10.37,2013-10-03 07:15:00,
2013-10-03 03:30:00,65.6,65.3,30.07,NE,48,0.0,0.0,99,0.00,CLR,,0.00,WeatherDisplay:10.37,2013-10-03 07:30:00,
2013-10-03 03:45:00,65.8,65.5,30.07,NE,48,0.0,0.0,99,0.00,CLR,,0.00,WeatherDisplay:10.37,2013-10-03 07:45:00,
2013-10-03 04:00:00,65.8,65.5,30.07,NE,48,0.0,0.0,99,0.00,CLR,,0.00,WeatherDisplay:10.37,2013-10-03 08:00:00,
2013-10-03 04:15:00,65.8,65.5,30.06,NE,48,0.0,0.0,99,0.00,CLR,,0.00,WeatherDisplay:10.37,2013-10-03 08:15:00,
2013-10-03 04:30:00,65.6,65.3,30.06,NE,48,0.0,0.0,99,0.00,CLR,,0.00,WeatherDisplay:10.37,2013-10-03 08:30:00,
2013-10-03 04:45:00,65.6,65.3,30.06,NE,48,0.0,0.0,99,0.00,CLR,,0.00,WeatherDisplay:10.37,2013-10-03 08:45:00,
2013-10-03 05:00:00,65.4,65.1,30.06,NE,48,0.0,0.0,99,0.00,CLR,,0.00,WeatherDisplay:10.37,2013-10-03 09:00:00,
2013-10-03 05:15:00,65.3,65.0,30.06,NE,48,0.0,0.0,99,0.00,CLR,,0.00,WeatherDisplay:10.37,2013-10-03 09:15:00,
2013-10-03 05:30:00,65.3,65.0,30.06,NE,48,0.0,0.0,99,0.00,CLR,,0.00,WeatherDisplay:10.37,2013-10-03 09:30:00,
2013-10-03 05:45:00,65.4,65.1,30.06,NE,48,0.0,0.0,99,0.00,CLR,,0.00,WeatherDisplay:10.37,2013-10-03 09:45:00,
2013-10-03 06:00:00,65.4,65.1,30.06,NE,48,0.0,0.0,99,0.00,CLR,,0.00,WeatherDisplay:10.37,2013-10-03 10:00:00,
2013-10-03 06:15:00,65.4,65.1,30.06,NE,48,0.0,0.0,99,0.00,CLR,,0.00,WeatherDisplay:10.37,2013-10-03 10:15:00,
2013-10-03 06:30:00,65.6,65.3,30.06,NE,48,0.0,0.0,99,0.00,CLR,,0.00,WeatherDisplay:10.37,2013-10-03 10:30:00,
2013-10-03 06:45:00,66.0,65.7,30.06,NE,48,0.0,0.0,99,0.00,CLR,,0.00,WeatherDisplay:10.37,2013-10-03 10:45:00,
2013-10-03 07:00:00,65.9,65.6,30.06,NE,48,0.0,0.0,99,0.00,CLR,,0.00,WeatherDisplay:10.37,2013-10-03 11:00:00,
2013-10-03 07:15:00,65.8,65.5,30.07,NE,48,0.0,0.0,99,0.00,CLR,,0.00,WeatherDisplay:10.37,2013-10-03 11:15:00,
2013-10-03 07:30:00,65.8,65.5,30.07,NE,48,0.0,0.0,99,0.00,CLR,,0.00,WeatherDisplay:10.37,2013-10-03 11:30:00,
2013-10-03 07:45:00,65.9,65.6,30.07,NE,48,0.0,0.0,99,0.00,CLR,,0.00,WeatherDisplay:10.37,2013-10-03 11:45:00,
2013-10-03 08:00:00,66.9,66.9,30.07,NE,48,0.0,0.0,100,0.01,RA,,0.01,WeatherDisplay:10.37,2013-10-03 12:00:00,
2013-10-03 08:15:00,67.7,67.7,30.08,NE,42,0.0,2.0,100,0.00,CLR,,0.01,WeatherDisplay:10.37,2013-10-03 12:15:00,
2013-10-03 08:30:00,68.1,68.1,30.09,NE,42,0.0,0.0,100,0.00,CLR,,0.01,WeatherDisplay:10.37,2013-10-03 12:30:00,
2013-10-03 08:45:00,69.1,69.1,30.09,NE,42,0.0,1.0,100,0.00,CLR,,0.01,WeatherDisplay:10.37,2013-10-03 12:45:00,
2013-10-03 09:00:00,70.1,70.1,30.10,NE,42,0.0,1.0,100,0.00,CLR,,0.01,WeatherDisplay:10.37,2013-10-03 13:00:00,
2013-10-03 09:15:00,70.8,70.8,30.10,NE,42,0.0,0.0,100,0.00,CLR,,0.01,WeatherDisplay:10.37,2013-10-03 13:15:00,
2013-10-03 09:30:00,72.1,72.1,30.11,NE,42,0.0,4.0,100,0.00,CLR,,0.01,WeatherDisplay:10.37,2013-10-03 13:30:00,
2013-10-03 09:45:00,74.4,73.8,30.11,NNE,28,1.0,6.0,98,0.00,CLR,,0.01,WeatherDisplay:10.37,2013-10-03 13:45:00,
2013-10-03 10:00:00,76.6,74.1,30.11,ENE,72,2.0,7.0,92,0.00,CLR,,0.01,WeatherDisplay:10.37,2013-10-03 14:00:00,
2013-10-03 10:15:00,78.3,74.8,30.11,ENE,77,1.0,7.0,89,0.00,CLR,,0.01,WeatherDisplay:10.37,2013-10-03 14:15:00,
2013-10-03 10:30:00,79.6,75.0,30.12,ENE,76,1.0,8.0,86,0.00,CLR,,0.01,WeatherDisplay:10.37,2013-10-03 14:30:00,
2013-10-03 10:45:00,80.3,75.0,30.12,ENE,70,2.0,9.0,84,0.00,CLR,,0.01,WeatherDisplay:10.37,2013-10-03 14:45:00,
2013-10-03 11:00:00,81.3,75.3,30.12,East,92,0.0,8.0,82,0.00,CLR,,0.01,WeatherDisplay:10.37,2013-10-03 15:00:00,
2013-10-03 11:15:00,82.0,74.5,30.12,SE,132,0.0,6.0,78,0.00,CLR,,0.01,WeatherDisplay:10.37,2013-10-03 15:15:00,
2013-10-03 11:30:00,82.8,74.4,30.12,NNE,15,0.0,5.0,76,0.00,CLR,,0.01,WeatherDisplay:10.37,2013-10-03 15:30:00,
2013-10-03 11:45:00,83.6,74.4,30.12,ESE,102,2.0,8.0,74,0.00,CLR,,0.01,WeatherDisplay:10.37,2013-10-03 15:45:00,
2013-10-03 12:00:00,84.3,73.9,30.12,SSW,192,0.0,5.0,71,0.00,CLR,,0.01,WeatherDisplay:10.37,2013-10-03 16:00:00,
2013-10-03 12:15:00,84.1,72.9,30.12,ESE,109,2.0,5.0,69,0.00,CLR,,0.01,WeatherDisplay:10.37,2013-10-03 16:15:00,
2013-10-03 12:30:00,85.6,73.4,30.12,East,96,0.0,5.0,67,0.00,CLR,,0.01,WeatherDisplay:10.37,2013-10-03 16:30:00,
2013-10-03 12:45:00,85.1,72.9,30.11,ENE,65,0.0,8.0,67,0.00,CLR,,0.01,WeatherDisplay:10.37,2013-10-03 16:45:00,
2013-10-03 13:00:00,84.4,73.6,30.11,NE,52,1.0,5.0,70,0.00,CLR,,0.01,WeatherDisplay:10.37,2013-10-03 17:00:00,
2013-10-03 13:15:00,86.2,73.0,30.10,East,87,0.0,7.0,65,0.00,CLR,,0.01,WeatherDisplay:10.37,2013-10-03 17:15:00,
2013-10-03 13:30:00,85.4,73.2,30.09,ENE,78,2.0,9.0,67,0.00,CLR,,0.01,WeatherDisplay:10.37,2013-10-03 17:30:00,
2013-10-03 13:45:00,84.6,72.9,30.09,ENE,68,2.0,7.0,68,0.00,CLR,,0.01,WeatherDisplay:10.37,2013-10-03 17:45:00,
2013-10-03 14:00:00,85.4,74.5,30.08,East,93,1.0,6.0,70,0.00,CLR,,0.01,WeatherDisplay:10.37,2013-10-03 18:00:00,
2013-10-03 14:15:00,85.3,73.5,30.08,ENE,68,2.0,5.0,68,0.00,CLR,,0.01,WeatherDisplay:10.37,2013-10-03 18:15:00,
2013-10-03 14:30:00,84.8,73.9,30.07,NE,46,0.0,6.0,70,0.00,CLR,,0.01,WeatherDisplay:10.37,2013-10-03 18:30:00,
2013-10-03 14:45:00,84.8,73.9,30.07,ESE,109,0.0,7.0,70,0.00,CLR,,0.01,WeatherDisplay:10.37,2013-10-03 18:45:00,
2013-10-03 15:00:00,84.8,74.8,30.06,NE,53,0.0,6.0,72,0.00,CLR,,0.01,WeatherDisplay:10.37,2013-10-03 19:00:00,
2013-10-03 15:15:00,84.8,73.9,30.06,NE,51,2.0,7.0,70,0.00,CLR,,0.01,WeatherDisplay:10.37,2013-10-03 19:15:00,
2013-10-03 15:30:00,84.1,74.5,30.06,ENE,72,0.0,7.0,73,0.00,CLR,,0.01,WeatherDisplay:10.37,2013-10-03 19:30:00,
2013-10-03 15:45:00,84.8,74.7,30.05,ENE,77,1.0,8.0,72,0.00,CLR,,0.01,WeatherDisplay:10.37,2013-10-03 19:45:00,
2013-10-03 16:15:00,84.0,74.4,30.05,ENE,62,0.0,8.0,73,0.00,CLR,,0.01,WeatherDisplay:10.37,2013-10-03 20:15:00,
2013-10-03 16:33:00,83.8,75.4,30.04,ENE,67,0.0,4.0,76,0.00,CLR,,0.01,WeatherDisplay:10.37,2013-10-03 20:33:00,
2013-10-03 16:45:00,83.8,75.8,30.04,East,84,0.0,1.0,77,0.00,CLR,,0.01,WeatherDisplay:10.37,2013-10-03 20:45:00,
2013-10-03 17:00:00,83.9,74.7,30.04,East,91,1.0,3.0,74,0.00,CLR,,0.01,WeatherDisplay:10.37,2013-10-03 21:00:00,
2013-10-03 17:15:00,84.2,75.4,30.04,East,97,0.0,3.0,75,0.00,CLR,,0.01,WeatherDisplay:10.37,2013-10-03 21:15:00,
2013-10-03 17:30:00,83.5,75.2,30.05,ESE,108,0.0,6.0,76,0.00,CLR,,0.01,WeatherDisplay:10.37,2013-10-03 21:30:00,
2013-10-03 17:45:00,82.6,74.6,30.05,East,95,0.0,8.0,77,0.00,CLR,,0.01,WeatherDisplay:10.37,2013-10-03 21:45:00,
2013-10-03 18:00:00,81.9,74.3,30.05,SSE,155,0.0,6.0,78,0.00,CLR,,0.01,WeatherDisplay:10.37,2013-10-03 22:00:00,
2013-10-03 18:15:00,81.3,74.5,30.05,ENE,71,0.0,5.0,80,0.00,CLR,,0.01,WeatherDisplay:10.37,2013-10-03 22:15:00,
2013-10-03 18:30:00,80.7,74.7,30.05,ENE,70,0.0,1.0,82,0.00,CLR,,0.01,WeatherDisplay:10.37,2013-10-03 22:30:00,
2013-10-03 18:45:00,80.1,74.8,30.05,ENE,66,0.0,4.0,84,0.00,CLR,,0.01,WeatherDisplay:10.37,2013-10-03 22:45:00,
2013-10-03 19:00:00,79.5,74.5,30.05,NE,36,0.0,3.0,85,0.00,CLR,,0.01,WeatherDisplay:10.37,2013-10-03 23:00:00,
2013-10-03 19:15:00,78.9,74.3,30.06,NE,45,0.0,1.0,86,0.00,CLR,,0.01,WeatherDisplay:10.37,2013-10-03 23:15:00,
2013-10-03 19:30:00,78.3,74.5,30.06,NE,45,0.0,0.0,88,0.00,CLR,,0.01,WeatherDisplay:10.37,2013-10-03 23:30:00,
2013-10-03 19:45:00,77.7,74.2,30.06,NE,45,0.0,0.0,89,0.00,CLR,,0.01,WeatherDisplay:10.37,2013-10-03 23:45:00,
2013-10-03 20:00:00,77.1,73.9,30.07,NE,45,0.0,0.0,90,0.00,CLR,,0.01,WeatherDisplay:10.37,2013-10-04 00:00:00,
2013-10-03 20:15:00,76.6,73.8,30.07,NE,45,0.0,0.0,91,0.00,CLR,,0.01,WeatherDisplay:10.37,2013-10-04 00:15:00,
2013-10-03 20:30:00,76.2,73.4,30.08,NE,45,0.0,0.0,91,0.00,CLR,,0.01,WeatherDisplay:10.37,2013-10-04 00:30:00,
2013-10-03 20:45:00,75.8,73.3,30.08,NE,45,0.0,0.0,92,0.00,CLR,,0.01,WeatherDisplay:10.37,2013-10-04 00:45:00,
2013-10-03 21:00:00,75.3,73.1,30.09,NE,45,0.0,0.0,93,0.00,CLR,,0.01,WeatherDisplay:10.37,2013-10-04 01:00:00,
2013-10-03 21:15:00,74.8,73.0,30.09,NE,45,0.0,0.0,94,0.00,CLR,,0.01,WeatherDisplay:10.37,2013-10-04 01:15:00,
2013-10-03 21:30:00,74.4,72.9,30.09,NE,45,0.0,0.0,95,0.00,CLR,,0.01,WeatherDisplay:10.37,2013-10-04 01:30:00,
2013-10-03 21:45:00,74.0,72.5,30.10,NE,45,0.0,0.0,95,0.00,CLR,,0.01,WeatherDisplay:10.37,2013-10-04 01:45:00,
2013-10-03 22:00:00,73.7,72.5,30.10,NE,45,0.0,0.0,96,0.00,CLR,,0.01,WeatherDisplay:10.37,2013-10-04 02:00:00,
2013-10-03 22:15:00,73.4,72.2,30.10,NE,45,0.0,0.0,96,0.00,CLR,,0.01,WeatherDisplay:10.37,2013-10-04 02:15:00,
2013-10-03 22:30:00,73.0,71.7,30.11,NE,45,0.0,0.0,96,0.00,CLR,,0.01,WeatherDisplay:10.37,2013-10-04 02:30:00,
2013-10-03 22:45:00,72.6,71.4,30.11,NE,45,0.0,0.0,96,0.00,CLR,,0.01,WeatherDisplay:10.37,2013-10-04 02:45:00,
2013-10-03 23:00:00,72.4,71.5,30.11,NE,45,0.0,0.0,97,0.00,CLR,,0.01,WeatherDisplay:10.37,2013-10-04 03:00:00,
2013-10-03 23:15:00,72.3,71.4,30.11,NE,45,0.0,0.0,97,0.00,CLR,,0.01,WeatherDisplay:10.37,2013-10-04 03:15:00,
2013-10-03 23:30:00,72.1,71.2,30.10,NE,45,0.0,0.0,97,0.00,CLR,,0.01,WeatherDisplay:10.37,2013-10-04 03:30:00,
2013-10-03 23:45:00,71.9,71.0,30.10,NE,45,0.0,0.0,97,0.00,CLR,,0.01,WeatherDisplay:10.37,2013-10-04 03:45:00,